createdAt,value
2017-04-15T00:00:26.928Z,1004.44
2017-04-15T00:01:27.458Z,1004.46
2017-04-15T00:02:28.134Z,1004.48
2017-04-15T00:03:28.520Z,1004.47
2017-04-15T00:04:29.046Z,1004.47
2017-04-15T00:05:29.603Z,1004.45
2017-04-15T00:06:30.255Z,1004.47
2017-04-15T00:07:30.643Z,1004.51
2017-04-15T00:08:31.171Z,1004.46
2017-04-15T00:09:31.699Z,1004.43
2017-04-15T00:10:32.231Z,1004.42
2017-04-15T00:11:32.773Z,1004.41
2017-04-15T00:12:33.307Z,1004.38
2017-04-15T00:13:33.825Z,1004.36
2017-04-15T00:14:34.355Z,1004.33
2017-04-15T00:15:34.898Z,1004.31
2017-04-15T00:16:35.415Z,1004.30
2017-04-15T00:17:35.944Z,1004.30
2017-04-15T00:18:36.477Z,1004.27
2017-04-15T00:19:37.007Z,1004.27
2017-04-15T00:20:37.539Z,1004.33
2017-04-15T00:21:38.070Z,1004.34
2017-04-15T00:22:38.598Z,1004.28
2017-04-15T00:23:39.277Z,1004.30
2017-04-15T00:24:39.659Z,1004.30
2017-04-15T00:25:40.189Z,1004.31
2017-04-15T00:26:40.716Z,1004.28
2017-04-15T00:27:41.250Z,1004.34
2017-04-15T00:28:41.784Z,1004.23
2017-04-15T00:29:42.320Z,1004.28
2017-04-15T00:30:42.855Z,1004.27
2017-04-15T00:31:43.386Z,1004.26
2017-04-15T00:32:43.921Z,1004.28
2017-04-15T00:33:44.451Z,1004.25
2017-04-15T00:34:44.982Z,1004.22
2017-04-15T00:35:45.515Z,1004.17
2017-04-15T00:36:46.040Z,1004.19
2017-04-15T00:37:46.577Z,1004.19
2017-04-15T00:38:47.107Z,1004.18
2017-04-15T00:39:47.631Z,1004.13
2017-04-15T00:40:48.161Z,1004.13
2017-04-15T00:41:48.691Z,1004.11
2017-04-15T00:42:49.221Z,1004.06
2017-04-15T00:43:49.749Z,1004.06
2017-04-15T00:44:50.284Z,1004.11
2017-04-15T00:45:50.811Z,1004.12
2017-04-15T00:46:51.341Z,1004.06
2017-04-15T00:47:51.872Z,1004.02
2017-04-15T00:48:52.407Z,1003.97
2017-04-15T00:49:52.935Z,1004.07
2017-04-15T00:50:53.467Z,1004.04
2017-04-15T00:51:53.994Z,1004.07
2017-04-15T00:52:54.525Z,1004.07
2017-04-15T00:53:55.051Z,1004.03
2017-04-15T00:54:55.600Z,1004.07
2017-04-15T00:55:56.116Z,1004.08
2017-04-15T00:56:56.648Z,1004.03
2017-04-15T00:57:57.324Z,1004.01
2017-04-15T00:58:57.715Z,1004.00
2017-04-15T00:59:58.385Z,1004.02
2017-04-15T01:00:58.764Z,1004.04
2017-04-15T01:01:59.293Z,1004.03
2017-04-15T01:02:59.824Z,1003.99
2017-04-15T01:04:00.351Z,1004.02
2017-04-15T01:05:00.879Z,1004.02
2017-04-15T01:06:01.410Z,1003.98
2017-04-15T01:07:01.942Z,1003.98
2017-04-15T01:08:02.625Z,1003.93
2017-04-15T01:09:03.006Z,1003.96
2017-04-15T01:10:03.543Z,1003.95
2017-04-15T01:11:04.080Z,1003.94
2017-04-15T01:12:04.611Z,1003.91
2017-04-15T01:13:05.144Z,1003.91
2017-04-15T01:14:05.679Z,1003.86
2017-04-15T01:15:06.207Z,1003.92
2017-04-15T01:16:06.737Z,1003.90
2017-04-15T01:17:07.269Z,1003.96
2017-04-15T01:18:07.809Z,1003.87
2017-04-15T01:19:08.329Z,1003.86
2017-04-15T01:20:08.862Z,1003.89
2017-04-15T01:21:09.395Z,1003.86
2017-04-15T01:22:09.920Z,1003.89
2017-04-15T01:23:10.456Z,1003.88
2017-04-15T01:24:10.981Z,1003.88
2017-04-15T01:25:11.509Z,1003.87
2017-04-15T01:26:12.041Z,1003.78
2017-04-15T01:27:12.570Z,1003.86
2017-04-15T01:28:13.101Z,1003.86
2017-04-15T01:29:13.630Z,1003.80
2017-04-15T01:30:14.307Z,1003.77
2017-04-15T01:31:14.687Z,1003.72
2017-04-15T01:32:15.366Z,1003.71
2017-04-15T01:33:15.746Z,1003.67
2017-04-15T01:34:16.432Z,1003.70
2017-04-15T01:35:16.809Z,1003.67
2017-04-15T01:36:17.340Z,1003.70
2017-04-15T01:37:17.870Z,1003.71
2017-04-15T01:38:18.400Z,1003.72
2017-04-15T01:39:18.932Z,1003.70
2017-04-15T01:40:19.463Z,1003.68
2017-04-15T01:41:19.986Z,1003.69
2017-04-15T01:42:20.515Z,1003.71
2017-04-15T01:43:21.046Z,1003.64
2017-04-15T01:44:21.576Z,1003.60
2017-04-15T01:45:22.111Z,1003.65
2017-04-15T01:46:22.636Z,1003.57
2017-04-15T01:47:23.169Z,1003.59
2017-04-15T01:48:23.848Z,1003.62
2017-04-15T01:49:24.230Z,1003.53
2017-04-15T01:50:24.764Z,1003.56
2017-04-15T01:51:25.293Z,1003.54
2017-04-15T01:52:25.828Z,1003.58
2017-04-15T01:53:26.367Z,1003.61
2017-04-15T01:54:26.906Z,1003.57
2017-04-15T01:55:27.431Z,1003.54
2017-04-15T01:56:27.976Z,1003.55
2017-04-15T01:57:28.488Z,1003.53
2017-04-15T01:58:29.168Z,1003.52
2017-04-15T01:59:29.553Z,1003.53
2017-04-15T02:00:30.080Z,1003.48
2017-04-15T02:01:30.609Z,1003.47
2017-04-15T02:02:31.145Z,1003.44
2017-04-15T02:03:31.676Z,1003.42
2017-04-15T02:04:32.201Z,1003.42
2017-04-15T02:05:32.733Z,1003.35
2017-04-15T02:06:33.411Z,1003.41
2017-04-15T02:07:33.797Z,1003.35
2017-04-15T02:08:34.324Z,1003.36
2017-04-15T02:09:34.854Z,1003.35
2017-04-15T02:10:35.385Z,1003.34
2017-04-15T02:11:35.915Z,1003.40
2017-04-15T02:12:36.456Z,1003.34
2017-04-15T02:13:37.141Z,1003.36
2017-04-15T02:14:37.657Z,1003.40
2017-04-15T02:15:38.043Z,1003.36
2017-04-15T02:16:38.566Z,1003.37
2017-04-15T02:17:39.095Z,1003.34
2017-04-15T02:18:39.771Z,1003.38
2017-04-15T02:19:40.164Z,1003.40
2017-04-15T02:20:40.692Z,1003.37
2017-04-15T02:21:41.215Z,1003.34
2017-04-15T02:22:41.748Z,1003.34
2017-04-15T02:23:42.278Z,1003.35
2017-04-15T02:24:42.807Z,1003.37
2017-04-15T02:25:43.336Z,1003.32
2017-04-15T02:26:43.877Z,1003.27
2017-04-15T02:27:44.400Z,1003.30
2017-04-15T02:28:44.927Z,1003.30
2017-04-15T02:29:45.458Z,1003.27
2017-04-15T02:30:45.984Z,1003.27
2017-04-15T02:31:46.518Z,1003.25
2017-04-15T02:32:47.047Z,1003.23
2017-04-15T02:33:47.586Z,1003.23
2017-04-15T02:34:48.122Z,1003.17
2017-04-15T02:35:48.652Z,1003.19
2017-04-15T02:36:49.201Z,1003.12
2017-04-15T02:37:49.714Z,1003.20
2017-04-15T02:38:50.246Z,1003.15
2017-04-15T02:39:50.775Z,1003.15
2017-04-15T02:40:51.310Z,1003.10
2017-04-15T02:41:51.840Z,1003.04
2017-04-15T02:42:52.369Z,1002.99
2017-04-15T02:43:52.907Z,1003.06
2017-04-15T02:44:53.464Z,1003.07
2017-04-15T02:45:53.967Z,1003.05
2017-04-15T02:46:54.646Z,1003.06
2017-04-15T02:47:55.026Z,1003.01
2017-04-15T02:48:55.570Z,1003.03
2017-04-15T02:49:56.087Z,1003.03
2017-04-15T02:50:56.616Z,1003.07
2017-04-15T02:51:57.144Z,1003.06
2017-04-15T02:52:57.676Z,1003.04
2017-04-15T02:53:58.207Z,1003.07
2017-04-15T02:54:58.735Z,1003.04
2017-04-15T02:55:59.266Z,1003.01
2017-04-15T02:56:59.796Z,1003.00
2017-04-15T02:58:00.329Z,1002.97
2017-04-15T02:59:00.860Z,1002.99
2017-04-15T03:00:01.391Z,1002.95
2017-04-15T03:01:02.070Z,1002.92
2017-04-15T03:02:02.460Z,1002.93
2017-04-15T03:03:02.983Z,1002.91
2017-04-15T03:04:03.518Z,1002.90
2017-04-15T03:05:04.196Z,1002.89
2017-04-15T03:06:04.576Z,1002.88
2017-04-15T03:07:05.118Z,1002.92
2017-04-15T03:08:05.642Z,1002.86
2017-04-15T03:09:06.181Z,1002.89
2017-04-15T03:10:06.702Z,1002.84
2017-04-15T03:11:07.227Z,1002.88
2017-04-15T03:12:07.906Z,1002.81
2017-04-15T03:13:08.295Z,1002.77
2017-04-15T03:14:08.823Z,1002.74
2017-04-15T03:15:09.355Z,1002.74
2017-04-15T03:16:09.888Z,1002.83
2017-04-15T03:17:10.574Z,1002.80
2017-04-15T03:18:10.956Z,1002.78
2017-04-15T03:19:11.498Z,1002.79
2017-04-15T03:20:12.030Z,1002.76
2017-04-15T03:21:12.553Z,1002.74
2017-04-15T03:22:13.082Z,1002.68
2017-04-15T03:23:13.602Z,1002.74
2017-04-15T03:24:14.141Z,1002.71
2017-04-15T03:25:14.669Z,1002.69
2017-04-15T03:26:15.196Z,1002.67
2017-04-15T03:27:15.723Z,1002.66
2017-04-15T03:28:16.253Z,1002.66
2017-04-15T03:29:16.789Z,1002.69
2017-04-15T03:30:17.316Z,1002.60
2017-04-15T03:31:17.998Z,1002.57
2017-04-15T03:32:18.382Z,1002.59
2017-04-15T03:33:18.909Z,1002.57
2017-04-15T03:34:19.443Z,1002.57
2017-04-15T03:35:20.125Z,1002.62
2017-04-15T03:36:20.502Z,1002.55
2017-04-15T03:37:21.034Z,1002.58
2017-04-15T03:38:21.568Z,1002.56
2017-04-15T03:39:22.105Z,1002.58
2017-04-15T03:40:22.625Z,1002.51
2017-04-15T03:41:23.158Z,1002.48
2017-04-15T03:42:23.683Z,1002.47
2017-04-15T03:43:24.214Z,1002.49
2017-04-15T03:44:24.893Z,1002.40
2017-04-15T03:45:25.426Z,1002.47
2017-04-15T03:46:25.808Z,1002.49
2017-04-15T03:47:26.346Z,1002.44
2017-04-15T03:48:26.868Z,1002.51
2017-04-15T03:49:27.395Z,1002.47
2017-04-15T03:50:28.114Z,1002.48
2017-04-15T03:51:28.456Z,1002.44
2017-04-15T03:52:29.133Z,1002.47
2017-04-15T03:53:29.517Z,1002.48
2017-04-15T03:54:30.053Z,1002.43
2017-04-15T03:55:30.584Z,1002.46
2017-04-15T03:56:31.124Z,1002.45
2017-04-15T03:57:31.655Z,1002.49
2017-04-15T03:58:32.190Z,1002.43
2017-04-15T03:59:32.873Z,1002.44
2017-04-15T04:00:33.258Z,1002.40
2017-04-15T04:01:33.785Z,1002.38
2017-04-15T04:02:34.313Z,1002.41
2017-04-15T04:03:34.843Z,1002.32
2017-04-15T04:04:35.375Z,1002.30
2017-04-15T04:05:35.902Z,1002.29
2017-04-15T04:06:36.444Z,1002.33
2017-04-15T04:07:36.962Z,1002.30
2017-04-15T04:08:37.495Z,1002.23
2017-04-15T04:09:38.027Z,1002.23
2017-04-15T04:10:38.550Z,1002.32
2017-04-15T04:11:39.081Z,1002.31
2017-04-15T04:12:39.615Z,1002.27
2017-04-15T04:13:40.145Z,1002.17
2017-04-15T04:14:40.673Z,1002.15
2017-04-15T04:15:41.202Z,1002.20
2017-04-15T04:16:41.885Z,1002.14
2017-04-15T04:17:42.263Z,1002.23
2017-04-15T04:18:42.802Z,1002.20
2017-04-15T04:19:43.326Z,1002.08
2017-04-15T04:20:43.860Z,1002.06
2017-04-15T04:21:44.388Z,1002.06
2017-04-15T04:22:44.921Z,1002.01
2017-04-15T04:23:45.602Z,1002.06
2017-04-15T04:24:45.980Z,1002.08
2017-04-15T04:25:46.509Z,1002.08
2017-04-15T04:26:47.037Z,1002.05
2017-04-15T04:27:47.717Z,1001.96
2017-04-15T04:28:48.097Z,1001.96
2017-04-15T04:29:48.627Z,1001.99
2017-04-15T04:30:49.157Z,1001.96
2017-04-15T04:31:49.682Z,1001.86
2017-04-15T04:32:50.216Z,1001.89
2017-04-15T04:33:50.748Z,1001.78
2017-04-15T04:34:51.282Z,1001.78
2017-04-15T04:35:51.817Z,1001.78
2017-04-15T04:36:52.345Z,1001.79
2017-04-15T04:37:52.880Z,1001.68
2017-04-15T04:38:53.417Z,1001.73
2017-04-15T04:39:53.954Z,1001.77
2017-04-15T04:40:54.484Z,1001.74
2017-04-15T04:41:55.013Z,1001.72
2017-04-15T04:42:55.544Z,1001.69
2017-04-15T04:43:56.116Z,1001.72
2017-04-15T04:44:56.610Z,1001.61
2017-04-15T04:45:57.140Z,1001.58
2017-04-15T04:46:57.672Z,1001.57
2017-04-15T04:47:58.204Z,1001.52
2017-04-15T04:48:58.737Z,1001.61
2017-04-15T04:49:59.266Z,1001.61
2017-04-15T04:50:59.799Z,1001.55
2017-04-15T04:52:00.329Z,1001.55
2017-04-15T04:53:00.864Z,1001.62
2017-04-15T04:54:01.396Z,1001.57
2017-04-15T04:55:01.930Z,1001.54
2017-04-15T04:56:02.459Z,1001.58
2017-04-15T04:57:02.985Z,1001.53
2017-04-15T04:58:03.518Z,1001.48
2017-04-15T04:59:04.046Z,1001.46
2017-04-15T05:00:04.576Z,1001.49
2017-04-15T05:01:05.109Z,1001.52
2017-04-15T05:02:05.639Z,1001.53
2017-04-15T05:03:06.171Z,1001.44
2017-04-15T05:04:06.710Z,1001.47
2017-04-15T05:05:07.237Z,1001.38
2017-04-15T05:06:07.805Z,1001.41
2017-04-15T05:07:08.297Z,1001.45
2017-04-15T05:08:08.845Z,1001.40
2017-04-15T05:09:09.362Z,1001.44
2017-04-15T05:10:09.888Z,1001.39
2017-04-15T05:11:10.429Z,1001.41
2017-04-15T05:12:11.101Z,1001.42
2017-04-15T05:13:11.484Z,1001.38
2017-04-15T05:14:12.161Z,1001.33
2017-04-15T05:15:12.544Z,1001.29
2017-04-15T05:16:13.073Z,1001.33
2017-04-15T05:17:13.613Z,1001.33
2017-04-15T05:18:14.142Z,1001.32
2017-04-15T05:19:14.676Z,1001.28
2017-04-15T05:20:15.360Z,1001.34
2017-04-15T05:21:15.744Z,1001.39
2017-04-15T05:22:16.280Z,1001.36
2017-04-15T05:23:16.954Z,1001.47
2017-04-15T05:24:17.334Z,1001.39
2017-04-15T05:25:18.013Z,1001.36
2017-04-15T05:26:18.553Z,1001.37
2017-04-15T05:27:18.932Z,1001.49
2017-04-15T05:28:19.459Z,1001.43
2017-04-15T05:29:19.997Z,1001.40
2017-04-15T05:30:20.674Z,1001.50
2017-04-15T05:31:21.056Z,1001.52
2017-04-15T05:32:21.735Z,1001.46
2017-04-15T05:33:22.120Z,1001.47
2017-04-15T05:34:22.645Z,1001.45
2017-04-15T05:35:23.177Z,1001.43
2017-04-15T05:36:23.705Z,1001.38
2017-04-15T05:37:24.234Z,1001.38
2017-04-15T05:38:24.763Z,1001.46
2017-04-15T05:39:25.294Z,1001.43
2017-04-15T05:40:25.832Z,1001.36
2017-04-15T05:41:26.355Z,1001.40
2017-04-15T05:42:26.885Z,1001.41
2017-04-15T05:43:27.419Z,1001.38
2017-04-15T05:44:27.954Z,1001.37
2017-04-15T05:45:28.478Z,1001.37
2017-04-15T05:46:29.154Z,1001.42
2017-04-15T05:47:29.536Z,1001.41
2017-04-15T05:48:30.067Z,1001.34
2017-04-15T05:49:30.601Z,1001.40
2017-04-15T05:50:31.129Z,1001.40
2017-04-15T05:51:31.660Z,1001.35
2017-04-15T05:52:32.342Z,1001.36
2017-04-15T05:53:32.727Z,1001.32
2017-04-15T05:54:33.286Z,1001.38
2017-04-15T05:55:33.785Z,1001.38
2017-04-15T05:56:34.320Z,1001.28
2017-04-15T05:57:34.844Z,1001.29
2017-04-15T05:58:35.371Z,1001.28
2017-04-15T05:59:35.908Z,1001.30
2017-04-15T06:00:36.442Z,1001.30
2017-04-15T06:01:36.975Z,1001.27
2017-04-15T06:02:37.537Z,1001.27
2017-04-15T06:03:38.039Z,1001.24
2017-04-15T06:04:38.570Z,1001.24
2017-04-15T06:05:39.099Z,1001.24
2017-04-15T06:06:39.627Z,1001.26
2017-04-15T06:07:40.158Z,1001.26
2017-04-15T06:08:40.697Z,1001.30
2017-04-15T06:09:41.219Z,1001.25
2017-04-15T06:10:41.748Z,1001.29
2017-04-15T06:11:42.424Z,1001.24
2017-04-15T06:12:42.812Z,1001.24
2017-04-15T06:13:43.344Z,1001.18
2017-04-15T06:14:43.869Z,1001.16
2017-04-15T06:15:44.402Z,1001.16
2017-04-15T06:16:44.930Z,1001.23
2017-04-15T06:17:45.464Z,1001.19
2017-04-15T06:18:45.995Z,1001.26
2017-04-15T06:19:46.530Z,1001.14
2017-04-15T06:20:47.055Z,1001.20
2017-04-15T06:21:47.590Z,1001.14
2017-04-15T06:22:48.121Z,1001.15
2017-04-15T06:23:48.649Z,1001.21
2017-04-15T06:24:49.328Z,1001.18
2017-04-15T06:25:49.711Z,1001.14
2017-04-15T06:26:50.241Z,1001.17
2017-04-15T06:27:50.771Z,1001.12
2017-04-15T06:28:51.299Z,1001.18
2017-04-15T06:29:51.833Z,1001.19
2017-04-15T06:30:52.360Z,1001.16
2017-04-15T06:31:52.893Z,1001.19
2017-04-15T06:32:53.427Z,1001.25
2017-04-15T06:33:53.960Z,1001.22
2017-04-15T06:34:54.489Z,1001.20
2017-04-15T06:35:55.015Z,1001.24
2017-04-15T06:36:55.546Z,1001.15
2017-04-15T06:37:56.077Z,1001.12
2017-04-15T06:38:56.609Z,1001.10
2017-04-15T06:39:57.141Z,1001.07
2017-04-15T06:40:57.823Z,1001.11
2017-04-15T06:41:58.232Z,1001.15
2017-04-15T06:42:58.895Z,1001.17
2017-04-15T06:43:59.424Z,1001.13
2017-04-15T06:44:59.959Z,1001.12
2017-04-15T06:46:00.489Z,1001.04
2017-04-15T06:47:01.020Z,1001.14
2017-04-15T06:48:01.548Z,1001.01
2017-04-15T06:49:01.934Z,1001.07
2017-04-15T06:50:02.465Z,1001.07
2017-04-15T06:51:02.997Z,1001.03
2017-04-15T06:52:03.521Z,1001.01
2017-04-15T06:53:04.061Z,1001.07
2017-04-15T06:54:04.583Z,1001.04
2017-04-15T06:55:05.109Z,1001.04
2017-04-15T06:56:05.635Z,1001.08
2017-04-15T06:57:06.188Z,1001.09
2017-04-15T06:58:06.700Z,1001.00
2017-04-15T06:59:07.241Z,1001.06
2017-04-15T07:00:07.763Z,1001.07
2017-04-15T07:01:08.294Z,1001.16
2017-04-15T07:02:08.828Z,1001.15
2017-04-15T07:03:09.361Z,1001.11
2017-04-15T07:04:09.889Z,1001.09
2017-04-15T07:05:10.567Z,1001.10
2017-04-15T07:06:10.950Z,1001.07
2017-04-15T07:07:11.478Z,1001.10
2017-04-15T07:08:12.008Z,1001.04
2017-04-15T07:09:12.538Z,1001.09
2017-04-15T07:10:13.066Z,1001.16
2017-04-15T07:11:13.602Z,1001.15
2017-04-15T07:12:14.131Z,1001.15
2017-04-15T07:13:14.659Z,1001.11
2017-04-15T07:14:15.191Z,1001.11
2017-04-15T07:15:15.735Z,1001.14
2017-04-15T07:16:16.249Z,1001.13
2017-04-15T07:17:16.926Z,1001.12
2017-04-15T07:18:17.307Z,1001.13
2017-04-15T07:19:17.844Z,1001.12
2017-04-15T07:20:18.374Z,1001.14
2017-04-15T07:21:19.045Z,1001.15
2017-04-15T07:22:19.433Z,1001.18
2017-04-15T07:23:20.115Z,1001.19
2017-04-15T07:24:20.503Z,1001.11
2017-04-15T07:25:21.034Z,1001.14
2017-04-15T07:26:21.574Z,1001.10
2017-04-15T07:27:22.102Z,1001.10
2017-04-15T07:28:22.635Z,1001.09
2017-04-15T07:29:23.315Z,1001.12
2017-04-15T07:30:23.699Z,1001.16
2017-04-15T07:31:24.230Z,1001.19
2017-04-15T07:32:24.903Z,1001.22
2017-04-15T07:33:25.287Z,1001.21
2017-04-15T07:34:25.961Z,1001.20
2017-04-15T07:35:26.492Z,1001.18
2017-04-15T07:36:26.875Z,1001.19
2017-04-15T07:37:27.550Z,1001.25
2017-04-15T07:38:27.938Z,1001.24
2017-04-15T07:39:28.465Z,1001.14
2017-04-15T07:40:28.992Z,1001.21
2017-04-15T07:41:29.522Z,1001.19
2017-04-15T07:42:30.062Z,1001.22
2017-04-15T07:43:30.583Z,1001.23
2017-04-15T07:44:31.113Z,1001.21
2017-04-15T07:45:31.641Z,1001.25
2017-04-15T07:46:32.171Z,1001.27
2017-04-15T07:47:32.698Z,1001.28
2017-04-15T07:48:33.228Z,1001.36
2017-04-15T07:49:33.760Z,1001.31
2017-04-15T07:50:34.292Z,1001.37
2017-04-15T07:51:34.971Z,1001.25
2017-04-15T07:52:35.353Z,1001.33
2017-04-15T07:53:36.032Z,1001.29
2017-04-15T07:54:36.410Z,1001.38
2017-04-15T07:55:36.943Z,1001.26
2017-04-15T07:56:37.477Z,1001.43
2017-04-15T07:57:38.013Z,1001.32
2017-04-15T07:58:38.530Z,1001.33
2017-04-15T07:59:39.063Z,1001.44
2017-04-15T08:00:39.595Z,1001.29
2017-04-15T08:01:40.270Z,1001.33
2017-04-15T08:02:40.652Z,1001.32
2017-04-15T08:03:41.181Z,1001.32
2017-04-15T08:04:41.714Z,1001.39
2017-04-15T08:05:42.399Z,1001.41
2017-04-15T08:06:42.935Z,1001.43
2017-04-15T08:07:43.317Z,1001.45
2017-04-15T08:08:43.850Z,1001.45
2017-04-15T08:09:44.378Z,1001.49
2017-04-15T08:10:44.915Z,1001.42
2017-04-15T08:11:45.447Z,1001.53
2017-04-15T08:12:45.980Z,1001.58
2017-04-15T08:13:46.507Z,1001.53
2017-04-15T08:14:47.040Z,1001.61
2017-04-15T08:15:47.564Z,1001.64
2017-04-15T08:16:48.097Z,1001.60
2017-04-15T08:17:48.628Z,1001.60
2017-04-15T08:18:49.158Z,1001.64
2017-04-15T08:19:49.684Z,1001.61
2017-04-15T08:20:50.217Z,1001.59
2017-04-15T08:21:50.897Z,1001.58
2017-04-15T08:22:51.280Z,1001.60
2017-04-15T08:23:51.960Z,1001.61
2017-04-15T08:24:52.340Z,1001.69
2017-04-15T08:25:52.871Z,1001.64
2017-04-15T08:26:53.402Z,1001.70
2017-04-15T08:27:54.083Z,1001.64
2017-04-15T08:28:54.465Z,1001.67
2017-04-15T08:29:54.999Z,1001.66
2017-04-15T08:30:55.532Z,1001.68
2017-04-15T08:31:56.060Z,1001.72
2017-04-15T08:32:56.595Z,1001.66
2017-04-15T08:34:57.651Z,1001.75
2017-04-15T08:35:58.180Z,1001.71
2017-04-15T08:36:58.717Z,1001.77
2017-04-15T08:37:59.240Z,1001.74
2017-04-15T08:38:59.774Z,1001.79
2017-04-15T08:40:00.299Z,1001.73
2017-04-15T08:41:00.832Z,1001.74
2017-04-15T08:42:01.363Z,1001.79
2017-04-15T08:43:01.890Z,1001.73
2017-04-15T08:44:02.413Z,1001.76
2017-04-15T08:45:02.949Z,1001.78
2017-04-15T08:46:03.482Z,1001.75
2017-04-15T08:47:04.024Z,1001.79
2017-04-15T08:48:04.704Z,1001.79
2017-04-15T08:49:05.091Z,1001.84
2017-04-15T08:50:05.632Z,1001.86
2017-04-15T08:51:06.150Z,1001.81
2017-04-15T08:52:06.677Z,1001.79
2017-04-15T08:53:07.207Z,1001.84
2017-04-15T08:54:07.737Z,1001.76
2017-04-15T08:55:08.268Z,1001.80
2017-04-15T08:56:08.800Z,1001.90
2017-04-15T08:57:09.327Z,1001.87
2017-04-15T08:58:09.862Z,1001.86
2017-04-15T08:59:10.387Z,1001.86
2017-04-15T09:00:11.070Z,1001.95
2017-04-15T09:01:11.446Z,1001.95
2017-04-15T09:02:11.977Z,1001.88
2017-04-15T09:03:12.534Z,1001.87
2017-04-15T09:04:13.186Z,1001.90
2017-04-15T09:05:13.572Z,1001.97
2017-04-15T09:06:14.103Z,1002.01
2017-04-15T09:07:14.635Z,1001.94
2017-04-15T09:08:15.310Z,1001.96
2017-04-15T09:09:15.695Z,1001.94
2017-04-15T09:10:16.223Z,1001.94
2017-04-15T09:11:16.756Z,1002.00
2017-04-15T09:12:17.323Z,1002.02
2017-04-15T09:13:17.817Z,1001.97
2017-04-15T09:14:18.350Z,1001.97
2017-04-15T09:15:18.883Z,1002.00
2017-04-15T09:16:19.559Z,1002.08
2017-04-15T09:17:19.947Z,1002.06
2017-04-15T09:18:20.471Z,1002.01
2017-04-15T09:19:21.006Z,1002.06
2017-04-15T09:20:21.552Z,1002.11
2017-04-15T09:21:22.071Z,1002.05
2017-04-15T09:22:22.594Z,1002.09
2017-04-15T09:23:23.128Z,1002.13
2017-04-15T09:24:23.668Z,1002.07
2017-04-15T09:25:24.340Z,1002.11
2017-04-15T09:26:24.723Z,1002.06
2017-04-15T09:27:25.257Z,1002.11
2017-04-15T09:28:25.939Z,1002.14
2017-04-15T09:29:26.321Z,1002.16
2017-04-15T09:30:26.861Z,1002.07
2017-04-15T09:31:27.390Z,1002.12
2017-04-15T09:32:27.952Z,1002.16
2017-04-15T09:33:28.446Z,1002.11
2017-04-15T09:34:28.977Z,1002.11
2017-04-15T09:35:29.508Z,1002.18
2017-04-15T09:36:30.035Z,1002.10
2017-04-15T09:37:30.568Z,1002.11
2017-04-15T09:38:31.099Z,1002.19
2017-04-15T09:39:31.627Z,1002.14
2017-04-15T09:40:32.151Z,1002.18
2017-04-15T09:41:32.684Z,1002.20
2017-04-15T09:42:33.212Z,1002.15
2017-04-15T09:43:33.744Z,1002.27
2017-04-15T09:44:34.424Z,1002.25
2017-04-15T09:45:34.957Z,1002.17
2017-04-15T09:46:35.344Z,1002.18
2017-04-15T09:47:35.869Z,1002.18
2017-04-15T09:48:36.396Z,1002.17
2017-04-15T09:49:36.925Z,1002.12
2017-04-15T09:50:37.603Z,1002.30
2017-04-15T09:51:37.996Z,1002.23
2017-04-15T09:52:38.520Z,1002.26
2017-04-15T09:53:39.051Z,1002.28
2017-04-15T09:54:39.578Z,1002.32
2017-04-15T09:55:40.111Z,1002.28
2017-04-15T09:56:40.637Z,1002.30
2017-04-15T09:57:41.176Z,1002.34
2017-04-15T09:58:41.851Z,1002.36
2017-04-15T09:59:42.232Z,1002.27
2017-04-15T10:00:42.762Z,1002.32
2017-04-15T10:01:43.293Z,1002.36
2017-04-15T10:02:43.972Z,1002.34
2017-04-15T10:03:44.359Z,1002.38
2017-04-15T10:04:44.918Z,1002.35
2017-04-15T10:05:45.414Z,1002.38
2017-04-15T10:06:45.949Z,1002.44
2017-04-15T10:07:46.481Z,1002.38
2017-04-15T10:08:47.014Z,1002.41
2017-04-15T10:09:47.549Z,1002.40
2017-04-15T10:10:48.080Z,1002.41
2017-04-15T10:11:48.616Z,1002.38
2017-04-15T10:12:49.154Z,1002.33
2017-04-15T10:13:49.681Z,1002.38
2017-04-15T10:14:50.212Z,1002.29
2017-04-15T10:15:50.748Z,1002.37
2017-04-15T10:16:51.278Z,1002.34
2017-04-15T10:17:51.809Z,1002.38
2017-04-15T10:18:52.342Z,1002.40
2017-04-15T10:19:52.870Z,1002.38
2017-04-15T10:20:53.396Z,1002.34
2017-04-15T10:21:53.929Z,1002.40
2017-04-15T10:22:54.457Z,1002.32
2017-04-15T10:23:55.133Z,1002.36
2017-04-15T10:24:55.522Z,1002.29
2017-04-15T10:25:56.190Z,1002.34
2017-04-15T10:26:56.726Z,1002.36
2017-04-15T10:27:57.110Z,1002.37
2017-04-15T10:28:57.636Z,1002.36
2017-04-15T10:29:58.169Z,1002.32
2017-04-15T10:30:58.846Z,1002.35
2017-04-15T10:31:59.374Z,1002.38
2017-04-15T10:32:59.909Z,1002.34
2017-04-15T10:34:00.289Z,1002.28
2017-04-15T10:35:00.816Z,1002.31
2017-04-15T10:36:01.348Z,1002.30
2017-04-15T10:37:01.879Z,1002.35
2017-04-15T10:38:02.412Z,1002.34
2017-04-15T10:39:02.945Z,1002.33
2017-04-15T10:40:03.473Z,1002.31
2017-04-15T10:41:04.001Z,1002.33
2017-04-15T10:42:04.532Z,1002.32
2017-04-15T10:43:05.059Z,1002.29
2017-04-15T10:44:05.590Z,1002.31
2017-04-15T10:45:06.130Z,1002.35
2017-04-15T10:46:06.664Z,1002.33
2017-04-15T10:47:07.181Z,1002.30
2017-04-15T10:48:07.716Z,1002.34
2017-04-15T10:49:08.242Z,1002.36
2017-04-15T10:50:08.776Z,1002.32
2017-04-15T10:51:09.345Z,1002.30
2017-04-15T10:52:09.849Z,1002.32
2017-04-15T10:53:10.382Z,1002.29
2017-04-15T10:54:10.911Z,1002.26
2017-04-15T10:55:11.443Z,1002.25
2017-04-15T10:56:12.123Z,1002.15
2017-04-15T10:57:12.502Z,1002.22
2017-04-15T10:58:13.041Z,1002.19
2017-04-15T10:59:13.569Z,1002.28
2017-04-15T11:00:14.106Z,1002.16
2017-04-15T11:01:14.636Z,1002.21
2017-04-15T11:02:15.167Z,1002.21
2017-04-15T11:03:15.693Z,1002.17
2017-04-15T11:04:16.227Z,1002.15
2017-04-15T11:05:16.752Z,1002.08
2017-04-15T11:06:17.283Z,1002.12
2017-04-15T11:07:17.815Z,1002.10
2017-04-15T11:08:18.351Z,1002.12
2017-04-15T11:09:18.882Z,1002.10
2017-04-15T11:10:19.413Z,1002.10
2017-04-15T11:11:19.944Z,1002.10
2017-04-15T11:12:20.477Z,1002.05
2017-04-15T11:13:21.008Z,1001.99
2017-04-15T11:14:21.538Z,1002.03
2017-04-15T11:15:22.064Z,1002.03
2017-04-15T11:16:22.600Z,1002.11
2017-04-15T11:17:23.124Z,1002.11
2017-04-15T11:18:23.804Z,1002.13
2017-04-15T11:19:24.187Z,1002.10
2017-04-15T11:20:24.721Z,1002.07
2017-04-15T11:21:25.253Z,1002.12
2017-04-15T11:22:25.789Z,1002.09
2017-04-15T11:23:26.468Z,1002.10
2017-04-15T11:24:26.852Z,1002.09
2017-04-15T11:25:27.410Z,1002.16
2017-04-15T11:26:27.912Z,1002.20
2017-04-15T11:27:28.589Z,1002.17
2017-04-15T11:28:28.971Z,1002.17
2017-04-15T11:29:29.503Z,1002.14
2017-04-15T11:30:30.034Z,1002.21
2017-04-15T11:31:30.567Z,1002.25
2017-04-15T11:32:31.248Z,1002.17
2017-04-15T11:33:31.643Z,1002.18
2017-04-15T11:34:32.166Z,1002.18
2017-04-15T11:35:32.702Z,1002.17
2017-04-15T11:36:33.234Z,1002.18
2017-04-15T11:37:33.764Z,1002.17
2017-04-15T11:38:34.300Z,1002.14
2017-04-15T11:39:34.853Z,1002.13
2017-04-15T11:40:35.362Z,1002.11
2017-04-15T11:41:36.037Z,1002.07
2017-04-15T11:42:36.423Z,1002.12
2017-04-15T11:43:36.951Z,1002.16
2017-04-15T11:44:37.481Z,1002.23
2017-04-15T11:45:38.011Z,1002.21
2017-04-15T11:46:38.546Z,1002.22
2017-04-15T11:47:39.073Z,1002.22
2017-04-15T11:48:39.601Z,1002.25
2017-04-15T11:49:40.131Z,1002.22
2017-04-15T11:50:40.666Z,1002.23
2017-04-15T11:51:41.195Z,1002.23
2017-04-15T11:52:41.728Z,1002.27
2017-04-15T11:53:42.256Z,1002.21
2017-04-15T11:54:42.784Z,1002.31
2017-04-15T11:55:43.468Z,1002.36
2017-04-15T11:56:43.848Z,1002.28
2017-04-15T11:57:44.376Z,1002.30
2017-04-15T11:58:44.908Z,1002.39
2017-04-15T11:59:45.435Z,1002.33
2017-04-15T12:00:45.968Z,1002.33
2017-04-15T12:01:46.500Z,1002.41
2017-04-15T12:02:47.028Z,1002.34
2017-04-15T12:03:47.560Z,1002.40
2017-04-15T12:04:48.092Z,1002.40
2017-04-15T12:05:48.624Z,1002.36
2017-04-15T12:06:49.176Z,1002.34
2017-04-15T12:07:49.686Z,1002.35
2017-04-15T12:08:50.216Z,1002.33
2017-04-15T12:09:50.746Z,1002.40
2017-04-15T12:10:51.278Z,1002.42
2017-04-15T12:11:51.962Z,1002.31
2017-04-15T12:12:52.351Z,1002.36